EKA4 PAFA-PABT
Flight info
| Callsign | EKA4 |
|---|---|
| Flight time | N/A |
| Altitude | 12000 |
| Route | MELME |
| Aircraft | SH33/M-SDFGRY/S |
Departure
| Time | 2026-04-15 16:13 |
|---|---|
| Airport | Fairbanks International Airport (PAFA) |
Arrival
| Time | N/A |
|---|---|
| Airport | Bettles Airport (PABT) |
| Time | Latitude | Longitude | Altitude | Speed | Heading |
|---|---|---|---|---|---|
| 2026-04-15 16:13 | 64.83457 | -147.88101 | 2562 ft | 107 kts | 302° |
| 2026-04-15 16:13 | 64.83897 | -147.89506 | 3022 ft | 107 kts | 311° |
| 2026-04-15 16:13 | 64.84415 | -147.90751 | 3516 ft | 106 kts | 316° |
| 2026-04-15 16:14 | 64.84958 | -147.91905 | 3988 ft | 105 kts | 319° |
| 2026-04-15 16:14 | 64.85509 | -147.93006 | 4466 ft | 103 kts | 320° |
| 2026-04-15 16:14 | 64.86065 | -147.94074 | 4928 ft | 103 kts | 322° |
| 2026-04-15 16:14 | 64.86619 | -147.95125 | 5375 ft | 102 kts | 323° |
| 2026-04-15 16:15 | 64.87199 | -147.96213 | 5755 ft | 111 kts | 323° |
| 2026-04-15 16:15 | 64.87800 | -147.97347 | 6190 ft | 111 kts | 324° |
| 2026-04-15 16:15 | 64.88409 | -147.98480 | 6616 ft | 113 kts | 324° |
| 2026-04-15 16:15 | 64.89026 | -147.99627 | 7049 ft | 116 kts | 324° |
| 2026-04-15 16:16 | 64.89665 | -148.00822 | 7486 ft | 119 kts | 324° |
| 2026-04-15 16:16 | 64.90323 | -148.02056 | 7924 ft | 122 kts | 325° |
| 2026-04-15 16:16 | 64.90996 | -148.03316 | 8359 ft | 125 kts | 325° |
| 2026-04-15 16:16 | 64.91684 | -148.04607 | 8795 ft | 127 kts | 325° |
| 2026-04-15 16:17 | 64.92384 | -148.05920 | 9226 ft | 130 kts | 325° |
| 2026-04-15 16:17 | 64.93096 | -148.07256 | 9653 ft | 132 kts | 324° |
| 2026-04-15 16:17 | 64.93821 | -148.08619 | 10078 ft | 134 kts | 324° |
| 2026-04-15 16:17 | 64.94557 | -148.10002 | 10504 ft | 136 kts | 323° |
| 2026-04-15 16:18 | 64.95304 | -148.11407 | 10928 ft | 138 kts | 323° |
| 2026-04-15 16:18 | 64.96060 | -148.12831 | 11353 ft | 140 kts | 322° |
| 2026-04-15 16:18 | 64.96822 | -148.14270 | 11776 ft | 141 kts | 322° |
| 2026-04-15 16:18 | 64.97622 | -148.15778 | 12021 ft | 158 kts | 321° |
| 2026-04-15 16:19 | 64.98550 | -148.17530 | 12039 ft | 183 kts | 321° |
| 2026-04-15 16:19 | 64.99587 | -148.19490 | 12026 ft | 201 kts | 321° |
| 2026-04-15 16:19 | 65.00716 | -148.21627 | 12014 ft | 212 kts | 321° |
| 2026-04-15 16:19 | 65.01892 | -148.23853 | 12008 ft | 219 kts | 322° |
| 2026-04-15 16:20 | 65.03097 | -148.26133 | 12006 ft | 224 kts | 321° |
| 2026-04-15 16:20 | 65.04320 | -148.28453 | 12005 ft | 227 kts | 321° |
| 2026-04-15 16:20 | 65.05560 | -148.30809 | 12005 ft | 229 kts | 321° |
| 2026-04-15 16:20 | 65.06801 | -148.33171 | 12005 ft | 230 kts | 321° |
| 2026-04-15 16:21 | 65.08055 | -148.35561 | 12005 ft | 231 kts | 321° |
| 2026-04-15 16:21 | 65.09294 | -148.37924 | 12005 ft | 232 kts | 321° |
| 2026-04-15 16:21 | 65.10550 | -148.40325 | 12005 ft | 232 kts | 321° |
| 2026-04-15 16:21 | 65.11810 | -148.42734 | 12005 ft | 233 kts | 321° |
| 2026-04-15 16:22 | 65.13073 | -148.45154 | 12006 ft | 233 kts | 322° |
| 2026-04-15 16:22 | 65.14336 | -148.47576 | 12006 ft | 233 kts | 322° |
| 2026-04-15 16:22 | 65.15605 | -148.50011 | 12006 ft | 234 kts | 322° |
| 2026-04-15 16:22 | 65.16868 | -148.52436 | 12006 ft | 234 kts | 322° |
| 2026-04-15 16:23 | 65.18132 | -148.54867 | 12007 ft | 234 kts | 322° |
| 2026-04-15 16:23 | 65.19398 | -148.57307 | 12007 ft | 234 kts | 322° |
| 2026-04-15 16:23 | 65.20662 | -148.59748 | 12007 ft | 234 kts | 322° |
| 2026-04-15 16:23 | 65.21925 | -148.62190 | 12007 ft | 234 kts | 322° |
| 2026-04-15 16:24 | 65.23171 | -148.64601 | 12007 ft | 234 kts | 322° |
| 2026-04-15 16:24 | 65.24434 | -148.67048 | 12008 ft | 234 kts | 322° |
| 2026-04-15 16:24 | 65.25698 | -148.69500 | 12008 ft | 234 kts | 322° |
| 2026-04-15 16:24 | 65.26957 | -148.71946 | 12008 ft | 234 kts | 322° |
| 2026-04-15 16:25 | 65.28215 | -148.74393 | 12008 ft | 234 kts | 322° |
| 2026-04-15 16:25 | 65.29475 | -148.76846 | 12008 ft | 234 kts | 322° |
| 2026-04-15 16:25 | 65.30738 | -148.79308 | 12008 ft | 234 kts | 322° |
| 2026-04-15 16:25 | 65.31998 | -148.81769 | 12009 ft | 234 kts | 322° |
| 2026-04-15 16:26 | 65.33258 | -148.84231 | 12009 ft | 234 kts | 322° |
| 2026-04-15 16:26 | 65.34523 | -148.86706 | 12009 ft | 234 kts | 322° |
| 2026-04-15 16:26 | 65.35785 | -148.89179 | 12009 ft | 234 kts | 322° |
| 2026-04-15 16:26 | 65.37045 | -148.91650 | 12009 ft | 234 kts | 322° |
| 2026-04-15 16:27 | 65.38308 | -148.94131 | 12009 ft | 234 kts | 322° |
| 2026-04-15 16:27 | 65.39558 | -148.96589 | 12004 ft | 234 kts | 322° |
| 2026-04-15 16:27 | 65.40817 | -148.99071 | 11999 ft | 230 kts | 322° |
| 2026-04-15 16:27 | 65.42047 | -149.01497 | 11998 ft | 227 kts | 322° |
| 2026-04-15 16:28 | 65.43260 | -149.03893 | 11999 ft | 225 kts | 322° |
| 2026-04-15 16:28 | 65.44465 | -149.06276 | 11999 ft | 223 kts | 322° |
| 2026-04-15 16:28 | 65.45662 | -149.08647 | 12000 ft | 222 kts | 322° |
| 2026-04-15 16:28 | 65.46838 | -149.10978 | 12013 ft | 221 kts | 322° |